sensor_id;sensor_type;location;lat;lon;timestamp;P1;durP1;ratioP1;P2;durP2;ratioP2
22851;SDS011;11592;45.460;9.240;2023-01-09T00:00:48;9.13;;;7.07;;
22851;SDS011;11592;45.460;9.240;2023-01-09T00:03:16;8.00;;;6.40;;
22851;SDS011;11592;45.460;9.240;2023-01-09T00:05:42;8.30;;;6.45;;
22851;SDS011;11592;45.460;9.240;2023-01-09T00:08:09;9.32;;;6.28;;
22851;SDS011;11592;45.460;9.240;2023-01-09T00:10:36;10.07;;;7.03;;
22851;SDS011;11592;45.460;9.240;2023-01-09T00:13:03;8.85;;;6.22;;
22851;SDS011;11592;45.460;9.240;2023-01-09T00:15:30;8.13;;;5.90;;
22851;SDS011;11592;45.460;9.240;2023-01-09T00:17:56;7.30;;;5.65;;
22851;SDS011;11592;45.460;9.240;2023-01-09T00:20:23;9.63;;;6.57;;
22851;SDS011;11592;45.460;9.240;2023-01-09T00:22:50;9.10;;;6.90;;
22851;SDS011;11592;45.460;9.240;2023-01-09T00:25:17;9.60;;;6.80;;
22851;SDS011;11592;45.460;9.240;2023-01-09T00:27:44;9.02;;;6.82;;
22851;SDS011;11592;45.460;9.240;2023-01-09T00:30:11;8.73;;;6.70;;
22851;SDS011;11592;45.460;9.240;2023-01-09T00:32:38;11.00;;;7.13;;
22851;SDS011;11592;45.460;9.240;2023-01-09T00:35:06;10.43;;;7.75;;
22851;SDS011;11592;45.460;9.240;2023-01-09T00:37:38;10.75;;;7.88;;
22851;SDS011;11592;45.460;9.240;2023-01-09T00:40:05;10.40;;;7.72;;
22851;SDS011;11592;45.460;9.240;2023-01-09T00:42:32;9.25;;;6.70;;
22851;SDS011;11592;45.460;9.240;2023-01-09T00:45:03;11.40;;;7.13;;
22851;SDS011;11592;45.460;9.240;2023-01-09T00:47:36;11.20;;;7.45;;
22851;SDS011;11592;45.460;9.240;2023-01-09T00:50:10;10.63;;;7.05;;
22851;SDS011;11592;45.460;9.240;2023-01-09T00:52:46;9.88;;;6.82;;
22851;SDS011;11592;45.460;9.240;2023-01-09T00:55:16;9.10;;;6.57;;
22851;SDS011;11592;45.460;9.240;2023-01-09T00:57:43;8.70;;;6.28;;
22851;SDS011;11592;45.460;9.240;2023-01-09T01:00:10;11.63;;;7.43;;
22851;SDS011;11592;45.460;9.240;2023-01-09T01:02:38;10.73;;;7.40;;
22851;SDS011;11592;45.460;9.240;2023-01-09T01:05:05;9.02;;;7.43;;
22851;SDS011;11592;45.460;9.240;2023-01-09T01:07:51;10.55;;;7.43;;
22851;SDS011;11592;45.460;9.240;2023-01-09T01:10:19;13.32;;;8.48;;
22851;SDS011;11592;45.460;9.240;2023-01-09T01:12:48;10.15;;;8.20;;
22851;SDS011;11592;45.460;9.240;2023-01-09T01:15:16;10.95;;;8.35;;
22851;SDS011;11592;45.460;9.240;2023-01-09T01:17:44;13.02;;;8.98;;
22851;SDS011;11592;45.460;9.240;2023-01-09T01:20:13;13.00;;;8.73;;
22851;SDS011;11592;45.460;9.240;2023-01-09T01:22:42;13.75;;;9.27;;
22851;SDS011;11592;45.460;9.240;2023-01-09T01:25:09;13.95;;;9.02;;
22851;SDS011;11592;45.460;9.240;2023-01-09T01:27:38;14.13;;;9.10;;
22851;SDS011;11592;45.460;9.240;2023-01-09T01:30:05;14.63;;;9.68;;
22851;SDS011;11592;45.460;9.240;2023-01-09T01:32:33;14.38;;;9.30;;
22851;SDS011;11592;45.460;9.240;2023-01-09T01:35:00;14.15;;;9.90;;
22851;SDS011;11592;45.460;9.240;2023-01-09T01:37:27;15.48;;;9.43;;
22851;SDS011;11592;45.460;9.240;2023-01-09T01:39:54;14.80;;;9.77;;
22851;SDS011;11592;45.460;9.240;2023-01-09T01:42:21;14.30;;;9.48;;
22851;SDS011;11592;45.460;9.240;2023-01-09T01:47:53;10.63;;;8.10;;
22851;SDS011;11592;45.460;9.240;2023-01-09T01:50:38;9.60;;;7.20;;
22851;SDS011;11592;45.460;9.240;2023-01-09T01:55:43;8.52;;;6.35;;
22851;SDS011;11592;45.460;9.240;2023-01-09T01:58:28;7.57;;;4.63;;
22851;SDS011;11592;45.460;9.240;2023-01-09T02:00:57;5.28;;;4.07;;
22851;SDS011;11592;45.460;9.240;2023-01-09T02:03:25;6.30;;;4.68;;
22851;SDS011;11592;45.460;9.240;2023-01-09T02:05:53;6.05;;;4.88;;
22851;SDS011;11592;45.460;9.240;2023-01-09T02:08:20;6.28;;;4.88;;
22851;SDS011;11592;45.460;9.240;2023-01-09T02:10:48;7.28;;;4.75;;
22851;SDS011;11592;45.460;9.240;2023-01-09T02:13:15;6.82;;;4.63;;
22851;SDS011;11592;45.460;9.240;2023-01-09T02:15:51;5.63;;;4.38;;
22851;SDS011;11592;45.460;9.240;2023-01-09T02:18:30;6.30;;;4.50;;
22851;SDS011;11592;45.460;9.240;2023-01-09T02:21:21;5.25;;;4.05;;
22851;SDS011;11592;45.460;9.240;2023-01-09T02:27:09;4.32;;;3.33;;
22851;SDS011;11592;45.460;9.240;2023-01-09T02:38:11;5.45;;;3.95;;
22851;SDS011;11592;45.460;9.240;2023-01-09T02:40:51;4.35;;;3.53;;
22851;SDS011;11592;45.460;9.240;2023-01-09T02:43:25;4.80;;;3.75;;
22851;SDS011;11592;45.460;9.240;2023-01-09T02:45:52;4.80;;;3.75;;
22851;SDS011;11592;45.460;9.240;2023-01-09T02:48:19;5.00;;;3.75;;
22851;SDS011;11592;45.460;9.240;2023-01-09T02:53:49;4.95;;;3.78;;
22851;SDS011;11592;45.460;9.240;2023-01-09T02:59:36;5.13;;;3.50;;
22851;SDS011;11592;45.460;9.240;2023-01-09T03:05:06;5.68;;;3.97;;
22851;SDS011;11592;45.460;9.240;2023-01-09T03:10:16;7.22;;;4.70;;
22851;SDS011;11592;45.460;9.240;2023-01-09T03:12:46;5.88;;;4.25;;
22851;SDS011;11592;45.460;9.240;2023-01-09T03:15:17;6.85;;;4.68;;
22851;SDS011;11592;45.460;9.240;2023-01-09T03:17:49;5.90;;;4.35;;
22851;SDS011;11592;45.460;9.240;2023-01-09T03:20:18;5.78;;;4.35;;
22851;SDS011;11592;45.460;9.240;2023-01-09T03:22:52;6.50;;;4.80;;
22851;SDS011;11592;45.460;9.240;2023-01-09T03:25:21;6.90;;;5.00;;
22851;SDS011;11592;45.460;9.240;2023-01-09T03:27:56;7.03;;;4.93;;
22851;SDS011;11592;45.460;9.240;2023-01-09T03:30:25;7.47;;;4.57;;
22851;SDS011;11592;45.460;9.240;2023-01-09T03:32:53;7.13;;;5.15;;
22851;SDS011;11592;45.460;9.240;2023-01-09T03:35:21;6.63;;;4.60;;
22851;SDS011;11592;45.460;9.240;2023-01-09T03:37:48;5.97;;;4.47;;
22851;SDS011;11592;45.460;9.240;2023-01-09T03:40:17;5.20;;;4.13;;
22851;SDS011;11592;45.460;9.240;2023-01-09T03:42:44;5.15;;;4.30;;
22851;SDS011;11592;45.460;9.240;2023-01-09T03:45:12;5.68;;;3.58;;
22851;SDS011;11592;45.460;9.240;2023-01-09T03:47:39;6.25;;;3.83;;
22851;SDS011;11592;45.460;9.240;2023-01-09T03:50:06;5.63;;;4.28;;
22851;SDS011;11592;45.460;9.240;2023-01-09T03:52:33;6.53;;;4.70;;
22851;SDS011;11592;45.460;9.240;2023-01-09T03:55:01;6.05;;;4.60;;
22851;SDS011;11592;45.460;9.240;2023-01-09T03:57:28;7.47;;;4.97;;
22851;SDS011;11592;45.460;9.240;2023-01-09T03:59:54;7.65;;;4.55;;
22851;SDS011;11592;45.460;9.240;2023-01-09T04:02:21;6.90;;;4.65;;
22851;SDS011;11592;45.460;9.240;2023-01-09T04:04:48;9.98;;;4.70;;
22851;SDS011;11592;45.460;9.240;2023-01-09T04:07:15;6.55;;;4.78;;
22851;SDS011;11592;45.460;9.240;2023-01-09T04:09:42;6.60;;;5.18;;
22851;SDS011;11592;45.460;9.240;2023-01-09T04:12:08;7.88;;;5.40;;
22851;SDS011;11592;45.460;9.240;2023-01-09T04:14:35;11.82;;;5.53;;
22851;SDS011;11592;45.460;9.240;2023-01-09T04:17:02;7.75;;;5.53;;
22851;SDS011;11592;45.460;9.240;2023-01-09T04:19:29;7.22;;;5.20;;
22851;SDS011;11592;45.460;9.240;2023-01-09T04:21:55;10.55;;;6.68;;
22851;SDS011;11592;45.460;9.240;2023-01-09T04:24:22;10.00;;;6.05;;
22851;SDS011;11592;45.460;9.240;2023-01-09T04:26:49;9.35;;;5.47;;
22851;SDS011;11592;45.460;9.240;2023-01-09T04:29:16;8.63;;;5.60;;
22851;SDS011;11592;45.460;9.240;2023-01-09T04:31:43;8.88;;;6.25;;
22851;SDS011;11592;45.460;9.240;2023-01-09T04:34:09;11.32;;;6.97;;
22851;SDS011;11592;45.460;9.240;2023-01-09T04:36:36;9.48;;;6.35;;
22851;SDS011;11592;45.460;9.240;2023-01-09T04:39:03;10.10;;;6.55;;
22851;SDS011;11592;45.460;9.240;2023-01-09T04:41:30;11.35;;;7.22;;
22851;SDS011;11592;45.460;9.240;2023-01-09T04:46:43;10.45;;;7.65;;
22851;SDS011;11592;45.460;9.240;2023-01-09T04:49:10;10.10;;;7.63;;
22851;SDS011;11592;45.460;9.240;2023-01-09T04:51:37;12.23;;;8.20;;
22851;SDS011;11592;45.460;9.240;2023-01-09T04:54:04;10.50;;;7.68;;
22851;SDS011;11592;45.460;9.240;2023-01-09T04:56:31;13.15;;;8.23;;
22851;SDS011;11592;45.460;9.240;2023-01-09T04:58:58;10.77;;;7.90;;
22851;SDS011;11592;45.460;9.240;2023-01-09T05:01:24;11.70;;;7.70;;
22851;SDS011;11592;45.460;9.240;2023-01-09T05:03:51;10.27;;;7.88;;
22851;SDS011;11592;45.460;9.240;2023-01-09T05:06:18;11.23;;;7.63;;
22851;SDS011;11592;45.460;9.240;2023-01-09T05:08:45;11.38;;;7.75;;
22851;SDS011;11592;45.460;9.240;2023-01-09T05:11:12;15.68;;;8.38;;
22851;SDS011;11592;45.460;9.240;2023-01-09T05:13:38;11.85;;;7.68;;
22851;SDS011;11592;45.460;9.240;2023-01-09T05:16:05;10.68;;;7.88;;
22851;SDS011;11592;45.460;9.240;2023-01-09T05:18:32;10.80;;;7.95;;
22851;SDS011;11592;45.460;9.240;2023-01-09T05:21:00;10.80;;;7.90;;
22851;SDS011;11592;45.460;9.240;2023-01-09T05:23:26;9.85;;;7.70;;
22851;SDS011;11592;45.460;9.240;2023-01-09T05:25:53;12.80;;;8.18;;
22851;SDS011;11592;45.460;9.240;2023-01-09T05:28:20;11.50;;;7.35;;
22851;SDS011;11592;45.460;9.240;2023-01-09T05:30:47;10.55;;;6.68;;
22851;SDS011;11592;45.460;9.240;2023-01-09T05:33:14;9.27;;;6.57;;
22851;SDS011;11592;45.460;9.240;2023-01-09T05:35:41;11.65;;;7.03;;
22851;SDS011;11592;45.460;9.240;2023-01-09T05:38:07;11.07;;;7.03;;
22851;SDS011;11592;45.460;9.240;2023-01-09T05:40:34;9.52;;;6.65;;
22851;SDS011;11592;45.460;9.240;2023-01-09T05:43:05;9.73;;;6.15;;
22851;SDS011;11592;45.460;9.240;2023-01-09T05:45:32;10.35;;;6.22;;
22851;SDS011;11592;45.460;9.240;2023-01-09T05:47:59;7.28;;;6.13;;
22851;SDS011;11592;45.460;9.240;2023-01-09T05:50:26;9.73;;;6.22;;
22851;SDS011;11592;45.460;9.240;2023-01-09T05:52:53;9.60;;;6.43;;
22851;SDS011;11592;45.460;9.240;2023-01-09T05:55:20;8.57;;;6.15;;
22851;SDS011;11592;45.460;9.240;2023-01-09T05:57:47;10.48;;;7.35;;
22851;SDS011;11592;45.460;9.240;2023-01-09T06:00:14;10.07;;;7.15;;
22851;SDS011;11592;45.460;9.240;2023-01-09T06:02:41;11.73;;;7.25;;
22851;SDS011;11592;45.460;9.240;2023-01-09T06:05:08;11.02;;;8.13;;
22851;SDS011;11592;45.460;9.240;2023-01-09T06:07:35;12.20;;;8.13;;
22851;SDS011;11592;45.460;9.240;2023-01-09T06:10:09;10.88;;;7.93;;
22851;SDS011;11592;45.460;9.240;2023-01-09T06:12:38;11.20;;;7.80;;
22851;SDS011;11592;45.460;9.240;2023-01-09T06:15:05;11.45;;;7.18;;
22851;SDS011;11592;45.460;9.240;2023-01-09T06:17:34;13.93;;;7.80;;
22851;SDS011;11592;45.460;9.240;2023-01-09T06:20:01;9.00;;;6.95;;
22851;SDS011;11592;45.460;9.240;2023-01-09T06:22:28;11.95;;;6.50;;
22851;SDS011;11592;45.460;9.240;2023-01-09T06:24:54;9.63;;;7.35;;
22851;SDS011;11592;45.460;9.240;2023-01-09T06:27:21;13.43;;;7.07;;
22851;SDS011;11592;45.460;9.240;2023-01-09T06:29:48;11.70;;;7.15;;
22851;SDS011;11592;45.460;9.240;2023-01-09T06:32:14;10.77;;;7.57;;
22851;SDS011;11592;45.460;9.240;2023-01-09T06:34:41;9.43;;;6.88;;
22851;SDS011;11592;45.460;9.240;2023-01-09T06:37:08;9.52;;;6.22;;
22851;SDS011;11592;45.460;9.240;2023-01-09T06:39:35;10.77;;;6.30;;
22851;SDS011;11592;45.460;9.240;2023-01-09T06:42:02;11.02;;;6.78;;
22851;SDS011;11592;45.460;9.240;2023-01-09T06:44:29;9.15;;;6.00;;
22851;SDS011;11592;45.460;9.240;2023-01-09T06:46:58;15.48;;;10.13;;
22851;SDS011;11592;45.460;9.240;2023-01-09T06:49:25;10.88;;;7.72;;
22851;SDS011;11592;45.460;9.240;2023-01-09T06:51:51;9.88;;;6.38;;
22851;SDS011;11592;45.460;9.240;2023-01-09T06:54:19;9.85;;;6.82;;
22851;SDS011;11592;45.460;9.240;2023-01-09T06:56:46;10.30;;;6.80;;
22851;SDS011;11592;45.460;9.240;2023-01-09T06:59:13;11.20;;;7.30;;
22851;SDS011;11592;45.460;9.240;2023-01-09T07:01:40;12.40;;;7.65;;
22851;SDS011;11592;45.460;9.240;2023-01-09T07:04:07;11.18;;;7.65;;
22851;SDS011;11592;45.460;9.240;2023-01-09T07:06:36;10.25;;;7.18;;
22851;SDS011;11592;45.460;9.240;2023-01-09T07:09:03;10.20;;;7.20;;
22851;SDS011;11592;45.460;9.240;2023-01-09T07:11:33;12.68;;;7.35;;
22851;SDS011;11592;45.460;9.240;2023-01-09T07:14:00;8.65;;;6.47;;
22851;SDS011;11592;45.460;9.240;2023-01-09T07:16:26;37.40;;;27.27;;
22851;SDS011;11592;45.460;9.240;2023-01-09T07:18:53;22.42;;;14.25;;
22851;SDS011;11592;45.460;9.240;2023-01-09T07:21:20;8.10;;;6.40;;
22851;SDS011;11592;45.460;9.240;2023-01-09T07:23:47;8.23;;;5.78;;
22851;SDS011;11592;45.460;9.240;2023-01-09T07:26:14;9.27;;;6.05;;
22851;SDS011;11592;45.460;9.240;2023-01-09T07:28:41;7.40;;;5.75;;
22851;SDS011;11592;45.460;9.240;2023-01-09T07:31:07;9.60;;;6.55;;
22851;SDS011;11592;45.460;9.240;2023-01-09T07:33:34;13.05;;;8.20;;
22851;SDS011;11592;45.460;9.240;2023-01-09T07:36:01;9.68;;;6.90;;
22851;SDS011;11592;45.460;9.240;2023-01-09T07:38:28;9.80;;;6.93;;
22851;SDS011;11592;45.460;9.240;2023-01-09T07:40:55;11.20;;;7.32;;
22851;SDS011;11592;45.460;9.240;2023-01-09T07:43:22;11.30;;;6.90;;
22851;SDS011;11592;45.460;9.240;2023-01-09T07:45:48;11.38;;;7.53;;
22851;SDS011;11592;45.460;9.240;2023-01-09T07:48:15;24.35;;;15.48;;
22851;SDS011;11592;45.460;9.240;2023-01-09T07:50:42;14.68;;;9.73;;
22851;SDS011;11592;45.460;9.240;2023-01-09T07:53:09;12.60;;;8.43;;
22851;SDS011;11592;45.460;9.240;2023-01-09T07:55:35;12.02;;;8.25;;
22851;SDS011;11592;45.460;9.240;2023-01-09T07:58:02;11.52;;;7.80;;
22851;SDS011;11592;45.460;9.240;2023-01-09T08:00:29;14.05;;;9.20;;
22851;SDS011;11592;45.460;9.240;2023-01-09T08:02:58;19.75;;;11.43;;
22851;SDS011;11592;45.460;9.240;2023-01-09T08:05:25;14.52;;;10.52;;
22851;SDS011;11592;45.460;9.240;2023-01-09T08:07:52;14.35;;;9.25;;
22851;SDS011;11592;45.460;9.240;2023-01-09T08:10:18;14.85;;;9.13;;
22851;SDS011;11592;45.460;9.240;2023-01-09T08:12:46;17.13;;;9.43;;
22851;SDS011;11592;45.460;9.240;2023-01-09T08:15:14;15.27;;;9.40;;
22851;SDS011;11592;45.460;9.240;2023-01-09T08:17:42;24.98;;;15.13;;
22851;SDS011;11592;45.460;9.240;2023-01-09T08:20:10;21.17;;;13.35;;
22851;SDS011;11592;45.460;9.240;2023-01-09T08:22:42;15.98;;;9.90;;
22851;SDS011;11592;45.460;9.240;2023-01-09T08:25:15;16.98;;;10.25;;
22851;SDS011;11592;45.460;9.240;2023-01-09T08:27:43;15.70;;;9.80;;
22851;SDS011;11592;45.460;9.240;2023-01-09T08:30:10;13.20;;;9.05;;
22851;SDS011;11592;45.460;9.240;2023-01-09T08:32:37;20.13;;;12.32;;
22851;SDS011;11592;45.460;9.240;2023-01-09T08:35:05;16.98;;;11.43;;
22851;SDS011;11592;45.460;9.240;2023-01-09T08:37:32;18.45;;;10.40;;
22851;SDS011;11592;45.460;9.240;2023-01-09T08:39:59;20.42;;;12.02;;
22851;SDS011;11592;45.460;9.240;2023-01-09T08:42:25;17.98;;;11.65;;
22851;SDS011;11592;45.460;9.240;2023-01-09T08:45:11;17.80;;;11.45;;
22851;SDS011;11592;45.460;9.240;2023-01-09T08:47:56;22.40;;;15.52;;
22851;SDS011;11592;45.460;9.240;2023-01-09T08:50:23;19.33;;;11.88;;
22851;SDS011;11592;45.460;9.240;2023-01-09T08:52:50;21.85;;;11.10;;
22851;SDS011;11592;45.460;9.240;2023-01-09T08:55:17;18.63;;;11.30;;
22851;SDS011;11592;45.460;9.240;2023-01-09T08:57:47;19.95;;;11.73;;
22851;SDS011;11592;45.460;9.240;2023-01-09T09:00:16;15.30;;;9.88;;
22851;SDS011;11592;45.460;9.240;2023-01-09T09:02:43;21.17;;;12.80;;
22851;SDS011;11592;45.460;9.240;2023-01-09T09:05:10;15.30;;;9.90;;
22851;SDS011;11592;45.460;9.240;2023-01-09T09:07:37;13.68;;;9.20;;
22851;SDS011;11592;45.460;9.240;2023-01-09T09:10:04;12.90;;;8.00;;
22851;SDS011;11592;45.460;9.240;2023-01-09T09:12:31;15.60;;;8.00;;
22851;SDS011;11592;45.460;9.240;2023-01-09T09:14:57;11.30;;;8.00;;
22851;SDS011;11592;45.460;9.240;2023-01-09T09:17:53;16.48;;;9.50;;
22851;SDS011;11592;45.460;9.240;2023-01-09T09:20:22;9.65;;;7.18;;
22851;SDS011;11592;45.460;9.240;2023-01-09T09:22:50;14.57;;;7.15;;
22851;SDS011;11592;45.460;9.240;2023-01-09T09:25:17;11.43;;;7.70;;
22851;SDS011;11592;45.460;9.240;2023-01-09T09:27:44;14.32;;;7.68;;
22851;SDS011;11592;45.460;9.240;2023-01-09T09:30:13;11.05;;;7.18;;
22851;SDS011;11592;45.460;9.240;2023-01-09T09:32:40;16.25;;;7.88;;
22851;SDS011;11592;45.460;9.240;2023-01-09T09:35:08;12.10;;;7.22;;
22851;SDS011;11592;45.460;9.240;2023-01-09T09:37:36;10.00;;;7.47;;
22851;SDS011;11592;45.460;9.240;2023-01-09T09:40:03;11.23;;;7.28;;
22851;SDS011;11592;45.460;9.240;2023-01-09T09:43:03;11.65;;;7.03;;
22851;SDS011;11592;45.460;9.240;2023-01-09T09:49:48;11.05;;;6.97;;
22851;SDS011;11592;45.460;9.240;2023-01-09T09:54:57;10.30;;;6.90;;
22851;SDS011;11592;45.460;9.240;2023-01-09T09:57:33;11.43;;;7.38;;
22851;SDS011;11592;45.460;9.240;2023-01-09T10:00:03;12.63;;;7.47;;
22851;SDS011;11592;45.460;9.240;2023-01-09T10:02:37;12.15;;;7.40;;
22851;SDS011;11592;45.460;9.240;2023-01-09T10:05:26;11.68;;;7.93;;
22851;SDS011;11592;45.460;9.240;2023-01-09T10:07:54;14.93;;;8.00;;
22851;SDS011;11592;45.460;9.240;2023-01-09T10:10:45;13.00;;;7.97;;
22851;SDS011;11592;45.460;9.240;2023-01-09T10:13:17;13.13;;;8.25;;
22851;SDS011;11592;45.460;9.240;2023-01-09T10:21:33;12.02;;;6.95;;
22851;SDS011;11592;45.460;9.240;2023-01-09T10:26:54;9.75;;;7.20;;
22851;SDS011;11592;45.460;9.240;2023-01-09T10:38:44;13.80;;;6.43;;
22851;SDS011;11592;45.460;9.240;2023-01-09T10:47:33;12.82;;;6.78;;
22851;SDS011;11592;45.460;9.240;2023-01-09T10:50:15;10.68;;;6.95;;
22851;SDS011;11592;45.460;9.240;2023-01-09T10:52:49;9.73;;;6.40;;
22851;SDS011;11592;45.460;9.240;2023-01-09T10:58:10;9.48;;;6.22;;
22851;SDS011;11592;45.460;9.240;2023-01-09T11:00:39;20.50;;;13.00;;
22851;SDS011;11592;45.460;9.240;2023-01-09T11:03:10;12.32;;;8.07;;
22851;SDS011;11592;45.460;9.240;2023-01-09T11:05:38;14.82;;;7.25;;
22851;SDS011;11592;45.460;9.240;2023-01-09T11:16:04;15.40;;;7.40;;
22851;SDS011;11592;45.460;9.240;2023-01-09T11:18:48;13.10;;;7.85;;
22851;SDS011;11592;45.460;9.240;2023-01-09T11:24:17;15.13;;;8.60;;
22851;SDS011;11592;45.460;9.240;2023-01-09T11:26:47;13.57;;;8.60;;
22851;SDS011;11592;45.460;9.240;2023-01-09T11:29:15;14.52;;;8.88;;
22851;SDS011;11592;45.460;9.240;2023-01-09T11:31:50;14.80;;;10.30;;
22851;SDS011;11592;45.460;9.240;2023-01-09T11:34:25;18.95;;;10.82;;
22851;SDS011;11592;45.460;9.240;2023-01-09T11:37:00;18.13;;;11.45;;
22851;SDS011;11592;45.460;9.240;2023-01-09T11:39:39;19.58;;;10.70;;
22851;SDS011;11592;45.460;9.240;2023-01-09T11:42:20;18.50;;;11.48;;
22851;SDS011;11592;45.460;9.240;2023-01-09T11:47:45;18.92;;;10.85;;
22851;SDS011;11592;45.460;9.240;2023-01-09T11:55:43;19.27;;;8.27;;
22851;SDS011;11592;45.460;9.240;2023-01-09T11:58:15;12.23;;;8.52;;
22851;SDS011;11592;45.460;9.240;2023-01-09T12:39:41;15.93;;;10.43;;
22851;SDS011;11592;45.460;9.240;2023-01-09T12:42:21;15.27;;;11.50;;
22851;SDS011;11592;45.460;9.240;2023-01-09T12:48:20;14.93;;;11.10;;
22851;SDS011;11592;45.460;9.240;2023-01-09T12:51:06;16.52;;;12.00;;
22851;SDS011;11592;45.460;9.240;2023-01-09T12:57:38;15.05;;;10.40;;
22851;SDS011;11592;45.460;9.240;2023-01-09T13:00:15;15.38;;;11.27;;
22851;SDS011;11592;45.460;9.240;2023-01-09T13:02:55;15.77;;;11.23;;
22851;SDS011;11592;45.460;9.240;2023-01-09T13:05:46;14.10;;;10.73;;
22851;SDS011;11592;45.460;9.240;2023-01-09T13:10:58;15.40;;;10.70;;
22851;SDS011;11592;45.460;9.240;2023-01-09T13:13:46;13.65;;;10.10;;
22851;SDS011;11592;45.460;9.240;2023-01-09T13:16:22;12.93;;;9.40;;
22851;SDS011;11592;45.460;9.240;2023-01-09T13:19:04;15.63;;;10.40;;
22851;SDS011;11592;45.460;9.240;2023-01-09T13:21:38;12.23;;;9.43;;
22851;SDS011;11592;45.460;9.240;2023-01-09T13:24:29;12.60;;;10.05;;
22851;SDS011;11592;45.460;9.240;2023-01-09T13:27:04;13.15;;;8.75;;
22851;SDS011;11592;45.460;9.240;2023-01-09T13:29:40;11.02;;;8.35;;
22851;SDS011;11592;45.460;9.240;2023-01-09T13:34:54;13.80;;;8.70;;
22851;SDS011;11592;45.460;9.240;2023-01-09T13:37:30;10.70;;;7.93;;
22851;SDS011;11592;45.460;9.240;2023-01-09T13:40:02;12.35;;;8.93;;
22851;SDS011;11592;45.460;9.240;2023-01-09T13:43:00;10.73;;;7.85;;
22851;SDS011;11592;45.460;9.240;2023-01-09T13:45:30;15.63;;;8.35;;
22851;SDS011;11592;45.460;9.240;2023-01-09T13:50:43;11.50;;;7.47;;
22851;SDS011;11592;45.460;9.240;2023-01-09T13:58:25;8.55;;;7.20;;
22851;SDS011;11592;45.460;9.240;2023-01-09T14:06:35;9.95;;;7.28;;
22851;SDS011;11592;45.460;9.240;2023-01-09T14:11:44;12.30;;;7.45;;
22851;SDS011;11592;45.460;9.240;2023-01-09T14:14:28;8.43;;;5.82;;
22851;SDS011;11592;45.460;9.240;2023-01-09T14:16:58;9.82;;;6.85;;
22851;SDS011;11592;45.460;9.240;2023-01-09T14:21:58;10.38;;;7.82;;
22851;SDS011;11592;45.460;9.240;2023-01-09T14:24:30;12.93;;;7.90;;
22851;SDS011;11592;45.460;9.240;2023-01-09T14:30:29;13.20;;;7.57;;
22851;SDS011;11592;45.460;9.240;2023-01-09T14:35:46;16.00;;;9.00;;
22851;SDS011;11592;45.460;9.240;2023-01-09T14:38:51;13.43;;;8.40;;
22851;SDS011;11592;45.460;9.240;2023-01-09T14:44:23;13.27;;;8.23;;
22851;SDS011;11592;45.460;9.240;2023-01-09T14:47:17;12.40;;;7.80;;
22851;SDS011;11592;45.460;9.240;2023-01-09T14:50:02;14.40;;;8.30;;
22851;SDS011;11592;45.460;9.240;2023-01-09T14:52:52;13.52;;;8.20;;
22851;SDS011;11592;45.460;9.240;2023-01-09T14:55:47;15.70;;;8.02;;
22851;SDS011;11592;45.460;9.240;2023-01-09T14:58:23;15.07;;;8.95;;
22851;SDS011;11592;45.460;9.240;2023-01-09T15:01:05;14.75;;;8.70;;
22851;SDS011;11592;45.460;9.240;2023-01-09T15:03:44;16.65;;;9.77;;
22851;SDS011;11592;45.460;9.240;2023-01-09T15:06:41;15.63;;;8.95;;
22851;SDS011;11592;45.460;9.240;2023-01-09T15:09:31;15.05;;;9.52;;
22851;SDS011;11592;45.460;9.240;2023-01-09T15:14:38;16.83;;;9.80;;
22851;SDS011;11592;45.460;9.240;2023-01-09T15:17:21;16.40;;;9.73;;
22851;SDS011;11592;45.460;9.240;2023-01-09T15:19:52;17.80;;;10.52;;
22851;SDS011;11592;45.460;9.240;2023-01-09T15:22:30;18.73;;;10.00;;
22851;SDS011;11592;45.460;9.240;2023-01-09T15:25:14;20.30;;;9.57;;
22851;SDS011;11592;45.460;9.240;2023-01-09T15:27:53;18.48;;;10.82;;
22851;SDS011;11592;45.460;9.240;2023-01-09T15:33:00;18.58;;;10.18;;
22851;SDS011;11592;45.460;9.240;2023-01-09T15:35:29;16.40;;;9.82;;
22851;SDS011;11592;45.460;9.240;2023-01-09T15:37:56;16.10;;;9.45;;
22851;SDS011;11592;45.460;9.240;2023-01-09T15:40:24;19.85;;;10.55;;
22851;SDS011;11592;45.460;9.240;2023-01-09T15:42:58;18.90;;;11.23;;
22851;SDS011;11592;45.460;9.240;2023-01-09T15:45:27;19.42;;;10.70;;
22851;SDS011;11592;45.460;9.240;2023-01-09T15:51:01;18.15;;;9.75;;
22851;SDS011;11592;45.460;9.240;2023-01-09T15:53:49;19.10;;;11.35;;
22851;SDS011;11592;45.460;9.240;2023-01-09T15:56:20;18.20;;;11.00;;
22851;SDS011;11592;45.460;9.240;2023-01-09T15:58:56;19.30;;;10.15;;
22851;SDS011;11592;45.460;9.240;2023-01-09T16:04:09;22.13;;;10.63;;
22851;SDS011;11592;45.460;9.240;2023-01-09T16:06:42;17.80;;;10.35;;
22851;SDS011;11592;45.460;9.240;2023-01-09T16:09:19;20.05;;;11.15;;
22851;SDS011;11592;45.460;9.240;2023-01-09T16:11:49;18.50;;;10.88;;
22851;SDS011;11592;45.460;9.240;2023-01-09T16:14:19;18.00;;;10.32;;
22851;SDS011;11592;45.460;9.240;2023-01-09T16:16:52;18.27;;;11.18;;
22851;SDS011;11592;45.460;9.240;2023-01-09T16:24:46;19.67;;;10.35;;
22851;SDS011;11592;45.460;9.240;2023-01-09T16:29:50;18.92;;;10.73;;
22851;SDS011;11592;45.460;9.240;2023-01-09T16:32:45;19.65;;;11.07;;
22851;SDS011;11592;45.460;9.240;2023-01-09T16:35:16;19.65;;;10.18;;
22851;SDS011;11592;45.460;9.240;2023-01-09T16:37:46;22.25;;;11.63;;
22851;SDS011;11592;45.460;9.240;2023-01-09T16:42:42;18.88;;;10.75;;
22851;SDS011;11592;45.460;9.240;2023-01-09T16:45:38;18.08;;;10.80;;
22851;SDS011;11592;45.460;9.240;2023-01-09T16:48:16;18.85;;;10.43;;
22851;SDS011;11592;45.460;9.240;2023-01-09T16:50:46;20.48;;;10.32;;
22851;SDS011;11592;45.460;9.240;2023-01-09T16:53:17;17.63;;;10.60;;
22851;SDS011;11592;45.460;9.240;2023-01-09T16:55:47;21.15;;;11.38;;
22851;SDS011;11592;45.460;9.240;2023-01-09T16:58:14;20.48;;;10.75;;
22851;SDS011;11592;45.460;9.240;2023-01-09T17:01:02;18.73;;;10.63;;
22851;SDS011;11592;45.460;9.240;2023-01-09T17:03:29;19.25;;;10.13;;
22851;SDS011;11592;45.460;9.240;2023-01-09T17:05:57;19.00;;;10.60;;
22851;SDS011;11592;45.460;9.240;2023-01-09T17:08:26;19.35;;;10.07;;
22851;SDS011;11592;45.460;9.240;2023-01-09T17:10:55;17.08;;;10.20;;
22851;SDS011;11592;45.460;9.240;2023-01-09T17:13:23;17.77;;;10.38;;
22851;SDS011;11592;45.460;9.240;2023-01-09T17:15:51;17.23;;;9.70;;
22851;SDS011;11592;45.460;9.240;2023-01-09T17:18:22;18.00;;;9.65;;
22851;SDS011;11592;45.460;9.240;2023-01-09T17:20:54;16.95;;;9.50;;
22851;SDS011;11592;45.460;9.240;2023-01-09T17:23:23;18.90;;;9.80;;
22851;SDS011;11592;45.460;9.240;2023-01-09T17:25:54;17.23;;;9.38;;
22851;SDS011;11592;45.460;9.240;2023-01-09T17:28:50;16.92;;;9.02;;
22851;SDS011;11592;45.460;9.240;2023-01-09T17:33:44;15.60;;;8.90;;
22851;SDS011;11592;45.460;9.240;2023-01-09T17:36:30;16.80;;;8.75;;
22851;SDS011;11592;45.460;9.240;2023-01-09T17:39:00;14.68;;;8.43;;
22851;SDS011;11592;45.460;9.240;2023-01-09T17:41:27;13.95;;;7.97;;
22851;SDS011;11592;45.460;9.240;2023-01-09T17:43:56;12.98;;;6.85;;
22851;SDS011;11592;45.460;9.240;2023-01-09T17:46:28;13.55;;;7.20;;
22851;SDS011;11592;45.460;9.240;2023-01-09T17:48:57;19.08;;;9.05;;
22851;SDS011;11592;45.460;9.240;2023-01-09T17:51:25;16.80;;;8.50;;
22851;SDS011;11592;45.460;9.240;2023-01-09T17:53:52;19.10;;;8.27;;
22851;SDS011;11592;45.460;9.240;2023-01-09T17:56:20;11.65;;;6.70;;
22851;SDS011;11592;45.460;9.240;2023-01-09T17:58:49;13.32;;;6.00;;
22851;SDS011;11592;45.460;9.240;2023-01-09T18:01:17;11.68;;;6.05;;
22851;SDS011;11592;45.460;9.240;2023-01-09T18:03:45;13.25;;;5.57;;
22851;SDS011;11592;45.460;9.240;2023-01-09T18:06:15;10.85;;;5.88;;